MSC Vigo — A8ZV8 — position and weather

sailwx.info

Track history (hours):
 
Tides and Currents Weather Stations Pressure Air Temp Water Temp Dewpoint Dewpoint Depression Visibility Wind Speed Wind Dir Waves Ship Positions

MSC Vigo

Last reported at 2015-Apr-12 21:33 UTC. Time now 2015-Apr-21 06:36 UTC.
Position S 27°47' W 048°12'.
Warning: this ship's position is 8 days out of date.

Length 270 m; draft 9.8 m.

Type: Ship (hazmat cat A). MMSI: 636092276.

Date/timePositionNaut miles runAvg speedWind from/ knotsBaromVisibWave heightAir tempDewpointWater temp
2015-Apr-12 21:33S 27°47' W 048°12'1716.9
2015-Apr-12 20:32S 27°31' W 048°04'20316.9
2015-Apr-12 08:32S 24°25' W 046°33'1717.3
2015-Apr-12 07:34S 24°10' W 046°25'1212.0
2015-Apr-12 06:33S 23°60' W 046°18'5 4.3
2015-Apr-12 05:23S 23°55' W 046°21'0 0.0
2015-Apr-12 04:32S 23°55' W 046°21'0 0.0
2015-Apr-12 03:32S 23°55' W 046°21'0 0.0
2015-Apr-12 02:30S 23°55' W 046°21'0 0.0
2015-Apr-12 01:26S 23°55' W 046°21'0 0.0
2015-Apr-12 00:29S 23°55' W 046°21'0 0.0
2015-Apr-11 23:29S 23°55' W 046°21'0 0.0
2015-Apr-11 22:32S 23°55' W 046°21'0 0.0
2015-Apr-11 21:14S 23°55' W 046°21'0 0.0
2015-Apr-11 20:29S 23°55' W 046°21'0 0.0
2015-Apr-11 19:32S 23°55' W 046°21'0 0.0
2015-Apr-11 18:32S 23°55' W 046°21'0 0.0
2015-Apr-11 17:29S 23°55' W 046°21'0 0.0
2015-Apr-11 16:32S 23°55' W 046°21'0 0.5
2015-Apr-11 15:33S 23°55' W 046°21'5 4.8
2015-Apr-11 14:33S 23°60' W 046°20'6 6.1
2015-Apr-11 13:33S 24°05' W 046°16'8 8.1
2015-Apr-11 12:33S 24°08' W 046°08'0 0.3
2015-Apr-11 11:33S 24°08' W 046°08'9 8.5
2015-Apr-11 10:33S 24°04' W 046°00'1919.0
2015-Apr-11 09:33S 24°00' W 045°40'203 7.4
2015-Apr-10 06:00S 23°06' W 042°06'   020 / 31019.010.8 1.023.519.129.0
2015-Apr-04 00:00N 08°24' W 025°24'   030 / 161015.010.8 23.020.2
Track history (hours):
 
Tides and Currents Weather Stations Pressure Air Temp Water Temp Dewpoint Dewpoint Depression Visibility Wind Speed Wind Dir Waves Ship Positions

MSC Vigo

Last reported at 2015-Apr-12 21:33 UTC. Time now 2015-Apr-21 06:36 UTC.
Position S 27°47' W 048°12'.
Warning: this ship's position is 8 days out of date.

Length 270 m; draft 9.8 m.

Type: Ship (hazmat cat A). MMSI: 636092276.

Date/timePositionNaut miles runAvg speedWind from/ knotsBaromVisibWave heightAir tempDewpointWater temp
2015-Apr-12 21:33S 27°47' W 048°12'1716.9
2015-Apr-12 20:32S 27°31' W 048°04'20316.9
2015-Apr-12 08:32S 24°25' W 046°33'1717.3
2015-Apr-12 07:34S 24°10' W 046°25'1212.0
2015-Apr-12 06:33S 23°60' W 046°18'5 4.3
2015-Apr-12 05:23S 23°55' W 046°21'0 0.0
2015-Apr-12 04:32S 23°55' W 046°21'0 0.0
2015-Apr-12 03:32S 23°55' W 046°21'0 0.0
2015-Apr-12 02:30S 23°55' W 046°21'0 0.0
2015-Apr-12 01:26S 23°55' W 046°21'0 0.0
2015-Apr-12 00:29S 23°55' W 046°21'0 0.0
2015-Apr-11 23:29S 23°55' W 046°21'0 0.0
2015-Apr-11 22:32S 23°55' W 046°21'0 0.0
2015-Apr-11 21:14S 23°55' W 046°21'0 0.0
2015-Apr-11 20:29S 23°55' W 046°21'0 0.0
2015-Apr-11 19:32S 23°55' W 046°21'0 0.0
2015-Apr-11 18:32S 23°55' W 046°21'0 0.0
2015-Apr-11 17:29S 23°55' W 046°21'0 0.0
2015-Apr-11 16:32S 23°55' W 046°21'0 0.5
2015-Apr-11 15:33S 23°55' W 046°21'5 4.8
2015-Apr-11 14:33S 23°60' W 046°20'6 6.1
2015-Apr-11 13:33S 24°05' W 046°16'8 8.1
2015-Apr-11 12:33S 24°08' W 046°08'0 0.3
2015-Apr-11 11:33S 24°08' W 046°08'9 8.5
2015-Apr-11 10:33S 24°04' W 046°00'1919.0
2015-Apr-11 09:33S 24°00' W 045°40'203 7.4
2015-Apr-10 06:00S 23°06' W 042°06'   020 / 31019.010.8 1.023.519.129.0
2015-Apr-04 00:00N 08°24' W 025°24'   030 / 161015.010.8 23.020.2

Dump ship's entire track history